CheckWX is a tool to help pilots better visualize weather data.  It is not intended as a substitute for an official pre-flight weather briefing.

04:53:00 UTC

KBYL METAR
Williamsburg-Whitley County Airport
Williamsburg, Kentucky, USA
Current

18 mins ago

KBYL 260435Z AUTO 15005KT 10SM BKN045 BKN070 22/19 A3005 RMK AO1
Observed
Aug-26 @ 04:35 UTC
Wind
  • 150° at 5 KTS
Visibility
10 SM
Flight Rules
VFR
Cloud Levels
  • Broken at 4,500' AGL
  • Broken at 7,000' AGL
Temperature
22°C / 72°F
Dewpoint
19°C / 66°F
Humidity
83%
Altimeter
30.05" Hg
Pressure
1017.62 hPa
Previous

38 mins ago

KBYL 260415Z AUTO 15004KT 10SM BKN045 BKN080 22/19 A3005 RMK AO1
Observed
Aug-26 @ 04:15 UTC
Wind
  • 150° at 4 KTS
Visibility
10 SM
Flight Rules
VFR
Cloud Levels
  • Broken at 4,500' AGL
  • Broken at 8,000' AGL
Temperature
22°C / 72°F
Dewpoint
19°C / 66°F
Humidity
83%
Altimeter
30.05" Hg
Pressure
1017.62 hPa
Previous

58 mins ago

KBYL 260355Z AUTO 15005KT 10SM SCT045 BKN065 22/19 A3005 RMK AO1
Observed
Aug-26 @ 03:55 UTC
Wind
  • 150° at 5 KTS
Visibility
10 SM
Flight Rules
VFR
Cloud Levels
  • Scattered at 4,500' AGL
  • Broken at 6,500' AGL
Temperature
22°C / 72°F
Dewpoint
19°C / 66°F
Humidity
83%
Altimeter
30.05" Hg
Pressure
1017.62 hPa